This is the latest recevied weather packets stored in our database for station/object N4OGP-WX. If no packets are shown the sender has not sent any weather packets the latest 10 day(s).
| Time | Temp. | Humidity | Pressure | Rain* | Wind** | Luminosity | Snow |
|---|---|---|---|---|---|---|---|
| 1777330486 | 23.89° C | 42% | 1020.4 hPa | 0 mm | - | - | - |
| 1777330426 | 26.11° C | 78% | 1014.8 hPa | 0 mm | - | - | - |
| 1777330366 | 26.11° C | 78% | 1014.8 hPa | 0 mm | - | - | - |
| 1777330306 | 23.89° C | 42% | 1020.4 hPa | 0 mm | - | - | - |
| 1777330247 | 26.11° C | 78% | 1014.7 hPa | 0 mm | - | - | - |
| 1777330186 | 23.89° C | 42% | 1020.4 hPa | 0 mm | - | - | - |
| 1777330127 | 23.89° C | 42% | 1020.4 hPa | 0 mm | - | - | - |
| 1777330066 | 23.89° C | 42% | 1020.4 hPa | 0 mm | - | - | - |
| 1777330007 | 26.11° C | 79% | 1014.8 hPa | 0 mm | - | - | - |
| 1777329946 | 23.89° C | 42% | 1020.4 hPa | 0 mm | - | - | - |
| 1777329887 | 26.11° C | 78% | 1014.7 hPa | 0 mm | - | - | - |
| 1777329797 | 23.89° C | 42% | 1020.4 hPa | 0 mm | - | - | - |
| 1777329736 | 23.89° C | 42% | 1020.4 hPa | 0 mm | - | - | - |
| 1777329676 | 26.11° C | 80% | 1014.7 hPa | 0 mm | - | - | - |
| 1777329616 | 26.11° C | 80% | 1014.6 hPa | 0 mm | - | - | - |
| 1777329556 | 26.11° C | 79% | 1014.6 hPa | 0 mm | - | - | - |
| 1777329496 | 23.89° C | 42% | 1020.4 hPa | 0 mm | - | - | - |
| 1777329437 | 26.11° C | 79% | 1014.6 hPa | 0 mm | - | - | - |
| 1777329346 | 26.11° C | 78% | 1014.8 hPa | 0 mm | - | - | - |
| 1777329287 | 23.89° C | 42% | 1020.4 hPa | 0 mm | - | - | - |
| 1777329227 | 26.11° C | 79% | 1014.7 hPa | 0 mm | - | - | - |
| 1777329166 | 23.89° C | 42% | 1020.4 hPa | 0 mm | - | - | - |
| 1777329106 | 23.89° C | 42% | 1020.4 hPa | 0 mm | - | - | - |
| 1777329046 | 23.89° C | 42% | 1020.4 hPa | 0 mm | - | - | - |
| 1777328987 | 26.11° C | 79% | 1014.6 hPa | 0 mm | - | - | - |
* Rain latest hour (hover to see other rain measurements)
** Current wind speed in m/s (hover to see current wind gust speed)